Flight Track Log - Related Links

Times and Time Zones

All times are in EDT time to prevent confusion due to time zone crossing. See the UAL3817 flight status page for this flight to view local times or setup timezone preferences in your user account.

Time Position Orientation Groundspeed Altitude Reporting Facility
EDT Latitude Longitude Course Direction KTS MPH feet Rate Location/Type
Sat 08:23:08 PM 41.9000 -87.9000 79° East 212 244 3,500  Level Chicago TRACON
Sat 08:24:14 PM 41.8000 -87.8833 173° South 284 327 5,600 1,872 Climbing Chicago TRACON
Sat 08:25:29 PM 41.7269 -87.8467 159° South 294 338 7,900 1,897 Climbing Chicago Center
Sat 08:26:30 PM 41.6533 -87.7789 145° Southeast 316 364 9,900 2,066 Climbing Chicago Center
Sat 08:27:31 PM 41.5758 -87.7103 146° Southeast 330 380 12,100 1,610 Climbing Chicago Center
Sat 08:28:00 PM 42.1106 -87.0194 79° East  Level Estimated
Sat 08:28:33 PM 41.4781 -87.6206 145° Southeast 351 404 13,200  Level Chicago Center
Sat 08:29:34 PM 41.3772 -87.5656 158° South 395 455 14,200 1,180 Climbing Chicago Center
Sat 08:30:35 PM 41.2667 -87.5456 172° South 399 459 15,600 1,426 Climbing Chicago Center
Sat 08:31:36 PM 41.1567 -87.5233 171° South 400 460 17,100 1,279 Climbing Chicago Center
Sat 08:32:37 PM 41.0472 -87.4931 168° South 401 461 18,200 1,122 Climbing Chicago Center
Sat 08:33:39 PM 40.9356 -87.4619 168° South 412 474 19,400 1,122 Climbing Chicago Center
Sat 08:34:40 PM 40.8214 -87.4336 169° South 416 479 20,500 1,033 Climbing Chicago Center
Sat 08:35:41 PM 40.7047 -87.4028 169° South 424 488 21,500 984 Climbing Chicago Center
Sat 08:36:42 PM 40.5861 -87.3711 169° South 432 497 22,500 984 Climbing Chicago Center
Sat 08:37:43 PM 40.4667 -87.3389 168° South 438 504 23,500 1,073 Climbing Chicago Center
Sat 08:38:45 PM 40.3444 -87.2833 161° South 438 504 24,700 1,073 Climbing Chicago Center
Sat 08:39:46 PM 40.2289 -87.2292 160° South 441 507 25,700 1,082 Climbing Chicago Center
Sat 08:40:47 PM 40.1153 -87.1692 158° South 443 510 26,900 1,245 Climbing Chicago Center
Sat 08:41:32 PM 40.0317 -87.1017 148° Southeast 436 502 27,900 1,371 Climbing Indianapolis Center
Sat 08:42:32 PM 39.9317 -87.0164 147° Southeast 430 495 29,300 1,388 Climbing Indianapolis Center
Sat 08:43:33 PM 39.8322 -86.9325 147° Southeast 429 494 30,700 1,377 Climbing Indianapolis Center
Sat 08:44:34 PM 39.7325 -86.8497 147° Southeast 429 494 32,100 1,525 Climbing Indianapolis Center
Sat 08:45:35 PM 39.6144 -86.7519 147° Southeast 425 489 33,800 1,426 Climbing Indianapolis Center
Sat 08:46:36 PM 39.5167 -86.6708 147° Southeast 423 487 35,000 590 Climbing Indianapolis Center
Sat 08:47:37 PM 39.4142 -86.5864 148° Southeast 437 503 35,000  Level Indianapolis Center
Sat 08:48:37 PM 39.3050 -86.4967 148° Southeast 462 532 35,000  Level Indianapolis Center
Sat 08:49:38 PM 39.1950 -86.4053 147° Southeast 472 543 35,000  Level Indianapolis Center
Sat 08:50:39 PM 39.0878 -86.3172 147° Southeast 464 534 35,000  Level Indianapolis Center
Sat 08:51:40 PM 38.9775 -86.2275 148° Southeast 468 539 35,000  Level Indianapolis Center
Sat 08:52:41 PM 38.8514 -86.1253 148° Southeast 472 543 35,000  Level Indianapolis Center
Sat 08:53:41 PM 38.7411 -86.0356 148° Southeast 467 537 35,000  Level Indianapolis Center
Sat 08:54:42 PM 38.6306 -85.9458 148° Southeast 467 537 35,000  Level Indianapolis Center
Sat 08:55:43 PM 38.5183 -85.8564 148° Southeast 471 542 35,000  Level Indianapolis Center
Sat 08:56:44 PM 38.4081 -85.7686 148° Southeast 466 536 35,000  Level Indianapolis Center
Sat 08:57:45 PM 38.3006 -85.6800 147° Southeast 460 529 35,000  Level Indianapolis Center
Sat 08:58:45 PM 38.1914 -85.5936 148° Southeast 459 528 35,000  Level Indianapolis Center
Sat 08:59:46 PM 38.0792 -85.5083 149° Southeast 465 535 35,000  Level Indianapolis Center
Sat 09:00:47 PM 37.9708 -85.4197 147° Southeast 462 532 35,000  Level Indianapolis Center
Sat 09:01:48 PM 37.8586 -85.3336 149° Southeast 467 537 35,000  Level Indianapolis Center
Sat 09:02:49 PM 37.7511 -85.2494 148° Southeast 467 537 35,000  Level Indianapolis Center
Sat 09:03:49 PM 37.6406 -85.1622 148° Southeast 468 539 35,000  Level Indianapolis Center
Sat 09:04:50 PM 37.5297 -85.0792 149° Southeast 463 533 35,000  Level Indianapolis Center
Sat 09:05:51 PM 37.4222 -84.9928 147° Southeast 459 528 35,000  Level Indianapolis Center
Sat 09:06:52 PM 37.3131 -84.9092 149° Southeast 460 529 35,000  Level Indianapolis Center
Sat 09:07:53 PM 37.1867 -84.8125 149° Southeast 457 526 35,000  Level Indianapolis Center
Sat 09:08:53 PM 37.0794 -84.7292 148° Southeast 453 521 35,000  Level Indianapolis Center
Sat 09:09:54 PM 36.9767 -84.6519 149° Southeast 454 522 35,000  Level Indianapolis Center
Sat 09:10:55 PM 36.8694 -84.5683 148° Southeast 453 521 35,000  Level Indianapolis Center
Sat 09:11:57 PM 36.7558 -84.4836 149° Southeast 454 522 35,000  Level Indianapolis Center
Sat 09:12:57 PM 36.6475 -84.4008 148° Southeast 456 525 35,000  Level Indianapolis Center
Sat 09:13:58 PM 36.5392 -84.3208 149° Southeast 454 522 35,000  Level Indianapolis Center
Sat 09:14:58 PM 36.4353 -84.2419 149° Southeast 453 521 35,000  Level Indianapolis Center
Sat 09:15:59 PM 36.3258 -84.1600 149° Southeast 455 524 35,000  Level Indianapolis Center
Sat 09:17:00 PM 36.2181 -84.0789 149° Southeast 453 521 35,000  Level Indianapolis Center
Sat 09:17:57 PM 36.1042 -83.9975 150° Southeast 456 525 35,000  Level Atlanta Center
Sat 09:18:57 PM 35.9956 -83.9156 149° Southeast 456 525 35,000  Level Atlanta Center
Sat 09:19:57 PM 35.8828 -83.8311 149° Southeast 456 525 35,000  Level Atlanta Center
Sat 09:20:57 PM 35.7722 -83.7494 149° Southeast 461 531 35,000  Level Atlanta Center
Sat 09:21:57 PM 35.6592 -83.6681 150° Southeast 466 536 35,000  Level Atlanta Center
Sat 09:22:57 PM 35.5483 -83.5894 150° Southeast 466 536 35,000  Level Atlanta Center
Sat 09:23:57 PM 35.4417 -83.5086 148° Southeast 466 536 35,000  Level Atlanta Center
Sat 09:24:57 PM 35.3308 -83.4278 149° Southeast 466 536 35,000  Level Atlanta Center
Sat 09:25:57 PM 35.2197 -83.3472 149° Southeast 466 536 35,000  Level Atlanta Center
Sat 09:26:57 PM 35.1214 -83.2794 151° Southeast 466 536 35,000  Level Atlanta Center
Sat 09:27:57 PM 35.0103 -83.1969 149° Southeast 466 536 35,000  Level Atlanta Center
Sat 09:28:57 PM 34.8886 -83.1094 149° Southeast 466 536 35,000  Level Atlanta Center
Sat 09:29:57 PM 34.7836 -83.0322 149° Southeast 456 525 35,000  Level Atlanta Center
Sat 09:30:57 PM 34.6744 -82.9553 150° Southeast 454 522 35,000  Level Atlanta Center
Sat 09:31:57 PM 34.5672 -82.8808 150° Southeast 448 516 35,000  Level Atlanta Center
Sat 09:32:57 PM 34.4706 -82.8117 149° Southeast 448 516 35,000 -250 Level Atlanta Center
Sat 09:33:57 PM 34.3633 -82.7353 150° Southeast 453 521 34,500 -950 Descending Atlanta Center
Sat 09:34:57 PM 34.2561 -82.6614 150° Southeast 448 516 33,100 -1,450 Descending Atlanta Center
Sat 09:35:57 PM 34.1572 -82.5903 149° Southeast 435 501 31,600 -1,400 Descending Atlanta Center
Sat 09:36:57 PM 34.0478 -82.5144 150° Southeast 441 507 30,300 -800 Descending Atlanta Center
Sat 09:37:57 PM 33.9403 -82.4414 151° Southeast 446 513 30,000 -150 Descending Atlanta Center
Sat 09:38:57 PM 33.8161 -82.3586 151° Southeast 451 519 30,000  Level Atlanta Center
Sat 09:39:57 PM 33.7147 -82.2806 147° Southeast 471 542 30,000  Level Atlanta Center
Sat 09:40:57 PM 33.6011 -82.2056 151° Southeast 471 542 30,000 -691 Level Atlanta Center
Sat 09:42:42 PM 33.3933 -82.0617 150° Southeast 454 522 28,100 -1,491 Descending Jacksonville Center
Sat 09:43:42 PM 33.2800 -81.9833 150° Southeast 460 529 25,900 -2,250 Descending Jacksonville Center
Sat 09:44:42 PM 33.1647 -81.9050 150° Southeast 468 539 23,600 -2,400 Descending Jacksonville Center
Sat 09:45:42 PM 33.0556 -81.8294 150° Southeast 468 539 21,100 -2,550 Descending Jacksonville Center
Sat 09:46:42 PM 32.9525 -81.7564 149° Southeast 456 525 18,500 -2,550 Descending Jacksonville Center
Sat 09:47:42 PM 32.8581 -81.6931 151° Southeast 442 509 16,000 -2,600 Descending Jacksonville Center
Sat 09:48:42 PM 32.7531 -81.6253 151° Southeast 423 487 13,300 -2,450 Descending Jacksonville Center
Sat 09:49:42 PM 32.6564 -81.5625 151° Southeast 392 451 11,100 -1,400 Descending Jacksonville Center
Sat 09:50:42 PM 32.5703 -81.5047 151° Southeast 371 427 10,500 -900 Descending Jacksonville Center
Sat 09:51:42 PM 32.4986 -81.4542 149° Southeast 333 383 9,300 -1,500 Descending Jacksonville Center
Sat 09:52:42 PM 32.4356 -81.4133 151° Southeast 296 341 7,500 -1,750 Descending Jacksonville Center
Sat 09:53:42 PM 32.3703 -81.3700 151° Southeast 282 325 5,800 -1,850 Descending Jacksonville Center
Sat 09:54:42 PM 32.2967 -81.3197 150° Southeast 282 325 3,800 -1,400 Descending Jacksonville Center
Sat 09:55:42 PM 32.2314 -81.2814 154° Southeast 272 313 3,000 -400 Descending Jacksonville Center
Sat 09:56:42 PM 32.1622 -81.2656 169° South 254 292 3,000 -450 Level Jacksonville Center
Sat 09:57:42 PM 32.0975 -81.2667 181° South 254 292 2,100 -500 Descending Jacksonville Center
Sat 09:58:42 PM 32.0472 -81.2456 160° South 228 262 2,000 -100 Descending Jacksonville Center
Sat 10:00:00 PM 32.1167 -81.2000 North  Level FlightAware Approximate
Sat 10:07:00 PM 32.8808 -80.8931 North  Level Estimated
Sat 10:08:00 PM 32.9898 -80.8488 North  Level Estimated
Sat 10:09:00 PM 33.0989 -80.8045 North  Level Estimated
Sat 10:10:00 PM 33.2080 -80.7600 North  Level Estimated
Sat 10:11:00 PM 33.3170 -80.7154 North  Level Estimated
Sat 10:12:00 PM 33.4261 -80.6707 North  Level Estimated
Sat 10:13:00 PM 33.5351 -80.6258 North  Level Estimated
Sat 10:14:00 PM 33.6441 -80.5809 North  Level Estimated
Sat 10:15:00 PM 33.7531 -80.5358 North  Level Estimated
Sat 10:16:00 PM 33.8620 -80.4907 North  Level Estimated
Sat 10:17:00 PM 33.9710 -80.4454 North  Level Estimated
Sat 10:18:00 PM 34.0799 -80.4000 North  Level Estimated
Sat 10:19:00 PM 34.1888 -80.3545 North  Level Estimated
Sat 10:20:00 PM 34.2977 -80.3088 North  Level Estimated
Sat 10:21:00 PM 34.4066 -80.2631 North  Level Estimated
Sat 10:22:00 PM 34.5155 -80.2172 North  Level Estimated
Sat 10:23:00 PM 34.6243 -80.1712 North  Level Estimated
Sat 10:24:00 PM 34.7332 -80.1251 North  Level Estimated
Sat 10:25:00 PM 34.8420 -80.0789 North  Level Estimated
Sat 10:26:00 PM 34.9508 -80.0325 North  Level Estimated
Sat 10:27:00 PM 35.0596 -79.9861 North  Level Estimated
Sat 10:28:00 PM 35.1683 -79.9395 North  Level Estimated
Sat 10:29:00 PM 35.2771 -79.8927 North  Level Estimated
Sat 10:30:00 PM 35.3858 -79.8459 North  Level Estimated
Sat 10:31:00 PM 35.4945 -79.7989 North  Level Estimated
Sat 10:32:00 PM 35.6032 -79.7518 North  Level Estimated
Sat 10:33:00 PM 35.7118 -79.7045 North  Level Estimated
Sat 10:34:00 PM 35.8205 -79.6572 North  Level Estimated
Sat 10:35:00 PM 35.9291 -79.6097 North  Level Estimated
Sat 10:36:00 PM 36.0377 -79.5620 North  Level Estimated
Sat 10:37:00 PM 36.1463 -79.5143 North  Level Estimated
Sat 10:38:00 PM 36.2549 -79.4664 North  Level Estimated
Sat 10:39:00 PM 36.3635 -79.4184 North  Level Estimated
Sat 10:40:00 PM 36.4720 -79.3702 North  Level Estimated
Sat 10:41:00 PM 36.5805 -79.3219 North  Level Estimated
Sat 10:42:00 PM 36.6890 -79.2735 North  Level Estimated
Sat 10:43:00 PM 36.7975 -79.2249 North  Level Estimated
Sat 10:44:00 PM 36.9060 -79.1762 North  Level Estimated
Sat 10:45:00 PM 37.0144 -79.1274 North  Level Estimated
Sat 10:46:00 PM 37.1228 -79.0784 North  Level Estimated
Sat 10:47:00 PM 37.2312 -79.0293 North  Level Estimated
Sat 10:48:00 PM 37.3396 -78.9800 North  Level Estimated
Sat 10:49:00 PM 37.4480 -78.9306 North  Level Estimated
Sat 10:50:00 PM 37.5563 -78.8811 North  Level Estimated
Sat 10:51:00 PM 37.6646 -78.8314 North  Level Estimated
Sat 10:52:00 PM 37.7729 -78.7815 North  Level Estimated
Sat 10:53:00 PM 37.8812 -78.7316 North  Level Estimated
Sat 10:54:00 PM 37.9895 -78.6814 North  Level Estimated
Sat 10:55:00 PM 38.0977 -78.6311 North  Level Estimated
Sat 10:56:00 PM 38.2059 -78.5807 North  Level Estimated
Sat 10:57:00 PM 38.3141 -78.5301 North  Level Estimated
Sat 10:58:00 PM 38.4223 -78.4794 North  Level Estimated
Sat 10:59:00 PM 38.5304 -78.4285 North  Level Estimated
Sat 11:00:00 PM 38.6385 -78.3775 North  Level Estimated
Sat 11:01:00 PM 38.7466 -78.3263 North  Level Estimated
Sat 11:02:00 PM 38.8547 -78.2749 North  Level Estimated
Sat 11:03:00 PM 38.9628 -78.2234 North  Level Estimated
Sat 11:04:00 PM 39.0708 -78.1718 North  Level Estimated
Sat 11:05:00 PM 39.1788 -78.1200 North  Level Estimated
Sat 11:06:00 PM 39.2868 -78.0680 North  Level Estimated
Sat 11:07:00 PM 39.3948 -78.0158 North  Level Estimated
Sat 11:08:00 PM 39.5027 -77.9635 North  Level Estimated
Sat 11:09:00 PM 39.6106 -77.9111 North  Level Estimated
Sat 11:10:00 PM 39.7185 -77.8585 North  Level Estimated
Sat 11:11:00 PM 39.8264 -77.8057 North  Level Estimated
Sat 11:12:00 PM 39.9342 -77.7527 North  Level Estimated
Sat 11:13:00 PM 40.0421 -77.6996 North  Level Estimated
Sat 11:14:00 PM 40.1499 -77.6463 North  Level Estimated
Sat 11:15:00 PM 40.2576 -77.5928 North  Level Estimated
Sat 11:16:00 PM 40.3654 -77.5392 North  Level Estimated
Sat 11:17:00 PM 40.4731 -77.4854 North  Level Estimated
Sat 11:18:00 PM 40.5808 -77.4314 North  Level Estimated
Sat 11:19:00 PM 40.6885 -77.3773 North  Level Estimated
Sat 11:20:00 PM 40.7961 -77.3229 North  Level Estimated
Sat 11:21:00 PM 40.9037 -77.2684 North  Level Estimated
Sat 11:22:00 PM 41.0113 -77.2138 North  Level Estimated
Sat 11:23:00 PM 41.1189 -77.1589 North  Level Estimated
Sat 11:24:00 PM 41.2265 -77.1039 North  Level Estimated
Sat 11:25:00 PM 41.3340 -77.0486 North  Level Estimated
Sat 11:26:00 PM 41.4415 -76.9932 North  Level Estimated
Sat 11:27:00 PM 41.5489 -76.9377 North  Level Estimated
Sat 11:28:00 PM 41.6564 -76.8819 North  Level Estimated
Sat 11:29:00 PM 41.7638 -76.8259 North  Level Estimated
Sat 11:30:00 PM 41.8712 -76.7698 North  Level Estimated
Sat 11:31:00 PM 41.9785 -76.7134 North  Level Estimated
Sat 11:32:00 PM 42.0859 -76.6569 North  Level Estimated
Sat 11:33:00 PM 42.1932 -76.6002 North  Level Estimated
Sat 11:34:00 PM 42.3004 -76.5433 North  Level Estimated
Sat 11:35:00 PM 42.4077 -76.4862 North  Level Estimated
Sat 11:36:00 PM 42.5149 -76.4289 North  Level Estimated
Sat 11:37:00 PM 42.6221 -76.3714 North  Level Estimated
Sat 11:38:00 PM 42.7293 -76.3137 North  Level Estimated
Sat 11:39:00 PM 42.8364 -76.2558 North  Level Estimated
Sat 11:40:00 PM 42.9435 -76.1977 North  Level Estimated

Login

Don't have an account? Register now (free) for customized features, flight alerts, and more!